sensor_id;sensor_type;location;lat;lon;timestamp;temperature;humidity
65692;DHT22;52411;52.716;6.696;2023-09-19T00:00:21;14.90;99.90
65692;DHT22;52411;52.716;6.696;2023-09-19T00:02:53;14.90;99.90
65692;DHT22;52411;52.716;6.696;2023-09-19T00:05:20;14.80;99.90
65692;DHT22;52411;52.716;6.696;2023-09-19T00:07:50;14.70;99.90
65692;DHT22;52411;52.716;6.696;2023-09-19T00:10:16;14.70;99.90
65692;DHT22;52411;52.716;6.696;2023-09-19T00:12:45;14.60;99.90
65692;DHT22;52411;52.716;6.696;2023-09-19T00:15:11;14.60;99.90
65692;DHT22;52411;52.716;6.696;2023-09-19T00:17:36;14.50;99.90
65692;DHT22;52411;52.716;6.696;2023-09-19T00:20:03;14.50;99.90
65692;DHT22;52411;52.716;6.696;2023-09-19T00:22:40;14.50;99.90
65692;DHT22;52411;52.716;6.696;2023-09-19T00:25:07;14.50;99.90
65692;DHT22;52411;52.716;6.696;2023-09-19T00:27:32;14.40;99.90
65692;DHT22;52411;52.716;6.696;2023-09-19T00:30:01;14.40;99.90
65692;DHT22;52411;52.716;6.696;2023-09-19T00:32:26;14.40;99.90
65692;DHT22;52411;52.716;6.696;2023-09-19T00:34:57;14.40;99.90
65692;DHT22;52411;52.716;6.696;2023-09-19T00:37:23;14.30;99.90
65692;DHT22;52411;52.716;6.696;2023-09-19T00:39:49;14.40;99.90
65692;DHT22;52411;52.716;6.696;2023-09-19T00:42:21;14.40;99.90
65692;DHT22;52411;52.716;6.696;2023-09-19T00:44:47;14.40;99.90
65692;DHT22;52411;52.716;6.696;2023-09-19T00:47:13;14.40;99.90
65692;DHT22;52411;52.716;6.696;2023-09-19T00:49:45;14.40;99.90
65692;DHT22;52411;52.716;6.696;2023-09-19T00:52:18;14.40;99.90
65692;DHT22;52411;52.716;6.696;2023-09-19T00:54:46;14.40;99.90
65692;DHT22;52411;52.716;6.696;2023-09-19T00:57:12;14.40;99.90
65692;DHT22;52411;52.716;6.696;2023-09-19T00:59:40;14.40;99.90
65692;DHT22;52411;52.716;6.696;2023-09-19T01:02:06;14.40;99.90
65692;DHT22;52411;52.716;6.696;2023-09-19T01:04:32;14.40;99.90
65692;DHT22;52411;52.716;6.696;2023-09-19T01:06:59;14.40;99.90
65692;DHT22;52411;52.716;6.696;2023-09-19T01:09:24;14.30;99.90
65692;DHT22;52411;52.716;6.696;2023-09-19T01:11:51;14.30;99.90
65692;DHT22;52411;52.716;6.696;2023-09-19T01:14:38;14.30;99.90
65692;DHT22;52411;52.716;6.696;2023-09-19T01:17:29;14.20;99.90
65692;DHT22;52411;52.716;6.696;2023-09-19T01:22:42;14.30;99.90
65692;DHT22;52411;52.716;6.696;2023-09-19T01:28:29;14.30;99.90
65692;DHT22;52411;52.716;6.696;2023-09-19T01:30:57;14.40;99.90
65692;DHT22;52411;52.716;6.696;2023-09-19T01:33:24;14.30;99.90
65692;DHT22;52411;52.716;6.696;2023-09-19T01:35:51;14.30;99.90
65692;DHT22;52411;52.716;6.696;2023-09-19T01:38:19;14.30;99.90
65692;DHT22;52411;52.716;6.696;2023-09-19T01:40:58;14.30;99.90
65692;DHT22;52411;52.716;6.696;2023-09-19T01:43:41;14.30;99.90
65692;DHT22;52411;52.716;6.696;2023-09-19T01:46:33;14.30;99.90
65692;DHT22;52411;52.716;6.696;2023-09-19T01:52:30;14.20;99.90
65692;DHT22;52411;52.716;6.696;2023-09-19T01:54:41;14.20;99.90
65692;DHT22;52411;52.716;6.696;2023-09-19T01:57:22;14.10;99.90
65692;DHT22;52411;52.716;6.696;2023-09-19T02:00:05;14.20;99.90
65692;DHT22;52411;52.716;6.696;2023-09-19T02:02:37;14.10;99.90
65692;DHT22;52411;52.716;6.696;2023-09-19T02:05:04;14.10;99.90
65692;DHT22;52411;52.716;6.696;2023-09-19T02:07:30;14.00;99.90
65692;DHT22;52411;52.716;6.696;2023-09-19T02:09:57;14.10;99.90
65692;DHT22;52411;52.716;6.696;2023-09-19T02:12:25;14.00;99.90
65692;DHT22;52411;52.716;6.696;2023-09-19T02:14:51;14.00;99.90
65692;DHT22;52411;52.716;6.696;2023-09-19T02:17:16;14.00;99.90
65692;DHT22;52411;52.716;6.696;2023-09-19T02:19:42;13.90;99.90
65692;DHT22;52411;52.716;6.696;2023-09-19T02:22:08;13.90;99.90
65692;DHT22;52411;52.716;6.696;2023-09-19T02:24:36;13.90;99.90
65692;DHT22;52411;52.716;6.696;2023-09-19T02:27:02;13.90;99.90
65692;DHT22;52411;52.716;6.696;2023-09-19T02:29:32;13.90;99.90
65692;DHT22;52411;52.716;6.696;2023-09-19T02:32:00;13.90;99.90
65692;DHT22;52411;52.716;6.696;2023-09-19T02:34:27;13.90;99.90
65692;DHT22;52411;52.716;6.696;2023-09-19T02:36:52;13.80;99.90
65692;DHT22;52411;52.716;6.696;2023-09-19T02:39:20;13.80;99.90
65692;DHT22;52411;52.716;6.696;2023-09-19T02:41:45;13.80;99.90
65692;DHT22;52411;52.716;6.696;2023-09-19T02:44:11;13.80;99.90
65692;DHT22;52411;52.716;6.696;2023-09-19T02:46:37;13.80;99.90
65692;DHT22;52411;52.716;6.696;2023-09-19T02:49:03;13.70;99.90
65692;DHT22;52411;52.716;6.696;2023-09-19T02:51:32;13.70;99.90
65692;DHT22;52411;52.716;6.696;2023-09-19T02:54:01;13.70;99.90
65692;DHT22;52411;52.716;6.696;2023-09-19T02:56:28;13.70;99.90
65692;DHT22;52411;52.716;6.696;2023-09-19T02:58:55;13.70;99.90
65692;DHT22;52411;52.716;6.696;2023-09-19T03:01:21;13.70;99.90
65692;DHT22;52411;52.716;6.696;2023-09-19T03:03:47;13.70;99.90
65692;DHT22;52411;52.716;6.696;2023-09-19T03:06:13;13.70;99.90
65692;DHT22;52411;52.716;6.696;2023-09-19T03:08:40;13.70;99.90
65692;DHT22;52411;52.716;6.696;2023-09-19T03:11:07;13.80;99.90
65692;DHT22;52411;52.716;6.696;2023-09-19T03:13:35;13.80;99.90
65692;DHT22;52411;52.716;6.696;2023-09-19T03:16:05;13.70;99.90
65692;DHT22;52411;52.716;6.696;2023-09-19T03:18:33;13.70;99.90
65692;DHT22;52411;52.716;6.696;2023-09-19T03:20:59;13.70;99.90
65692;DHT22;52411;52.716;6.696;2023-09-19T03:23:28;13.70;99.90
65692;DHT22;52411;52.716;6.696;2023-09-19T03:25:55;13.80;99.90
65692;DHT22;52411;52.716;6.696;2023-09-19T03:28:21;13.70;99.90
65692;DHT22;52411;52.716;6.696;2023-09-19T03:31:04;13.80;99.90
65692;DHT22;52411;52.716;6.696;2023-09-19T03:33:30;13.80;99.90
65692;DHT22;52411;52.716;6.696;2023-09-19T03:36:00;13.80;99.90
65692;DHT22;52411;52.716;6.696;2023-09-19T03:38:26;13.90;99.90
65692;DHT22;52411;52.716;6.696;2023-09-19T03:40:52;14.00;99.90
65692;DHT22;52411;52.716;6.696;2023-09-19T03:43:18;14.00;99.90
65692;DHT22;52411;52.716;6.696;2023-09-19T03:45:44;14.10;99.90
65692;DHT22;52411;52.716;6.696;2023-09-19T03:48:12;14.10;99.90
65692;DHT22;52411;52.716;6.696;2023-09-19T03:50:38;14.10;99.90
65692;DHT22;52411;52.716;6.696;2023-09-19T03:53:04;14.20;99.90
65692;DHT22;52411;52.716;6.696;2023-09-19T03:55:32;14.20;99.90
65692;DHT22;52411;52.716;6.696;2023-09-19T03:57:58;14.20;99.90
65692;DHT22;52411;52.716;6.696;2023-09-19T04:00:23;14.20;99.90
65692;DHT22;52411;52.716;6.696;2023-09-19T04:02:52;14.20;99.90
65692;DHT22;52411;52.716;6.696;2023-09-19T04:05:18;14.30;99.90
65692;DHT22;52411;52.716;6.696;2023-09-19T04:07:44;14.30;99.90
65692;DHT22;52411;52.716;6.696;2023-09-19T04:10:10;14.40;99.90
65692;DHT22;52411;52.716;6.696;2023-09-19T04:12:40;14.40;99.90
65692;DHT22;52411;52.716;6.696;2023-09-19T04:15:06;14.30;99.90
65692;DHT22;52411;52.716;6.696;2023-09-19T04:17:32;14.30;99.90
65692;DHT22;52411;52.716;6.696;2023-09-19T04:19:59;14.30;99.90
65692;DHT22;52411;52.716;6.696;2023-09-19T04:22:25;14.30;99.90
65692;DHT22;52411;52.716;6.696;2023-09-19T04:24:51;14.30;99.90
65692;DHT22;52411;52.716;6.696;2023-09-19T04:27:17;14.20;99.90
65692;DHT22;52411;52.716;6.696;2023-09-19T04:29:44;14.20;99.90
65692;DHT22;52411;52.716;6.696;2023-09-19T04:32:09;14.20;99.90
65692;DHT22;52411;52.716;6.696;2023-09-19T04:34:35;14.10;99.90
65692;DHT22;52411;52.716;6.696;2023-09-19T04:37:01;14.10;99.90
65692;DHT22;52411;52.716;6.696;2023-09-19T04:39:27;14.10;99.90
65692;DHT22;52411;52.716;6.696;2023-09-19T04:41:54;14.10;99.90
65692;DHT22;52411;52.716;6.696;2023-09-19T04:44:20;14.10;99.90
65692;DHT22;52411;52.716;6.696;2023-09-19T04:46:46;14.00;99.90
65692;DHT22;52411;52.716;6.696;2023-09-19T04:49:12;14.00;99.90
65692;DHT22;52411;52.716;6.696;2023-09-19T04:51:38;14.00;99.90
65692;DHT22;52411;52.716;6.696;2023-09-19T04:54:04;14.00;99.90
65692;DHT22;52411;52.716;6.696;2023-09-19T04:56:29;14.00;99.90
65692;DHT22;52411;52.716;6.696;2023-09-19T04:58:56;14.00;99.90
65692;DHT22;52411;52.716;6.696;2023-09-19T05:01:23;13.90;99.90
65692;DHT22;52411;52.716;6.696;2023-09-19T05:03:49;13.90;99.90
65692;DHT22;52411;52.716;6.696;2023-09-19T05:06:19;13.90;99.90
65692;DHT22;52411;52.716;6.696;2023-09-19T05:08:46;13.90;99.90
65692;DHT22;52411;52.716;6.696;2023-09-19T05:11:15;13.90;99.90
65692;DHT22;52411;52.716;6.696;2023-09-19T05:13:41;13.80;99.90
65692;DHT22;52411;52.716;6.696;2023-09-19T05:16:07;13.90;99.90
65692;DHT22;52411;52.716;6.696;2023-09-19T05:18:35;13.80;99.90
65692;DHT22;52411;52.716;6.696;2023-09-19T05:21:02;13.80;99.90
65692;DHT22;52411;52.716;6.696;2023-09-19T05:23:28;13.80;99.90
65692;DHT22;52411;52.716;6.696;2023-09-19T05:25:53;13.80;99.90
65692;DHT22;52411;52.716;6.696;2023-09-19T05:28:20;13.80;99.90
65692;DHT22;52411;52.716;6.696;2023-09-19T05:30:45;13.80;99.90
65692;DHT22;52411;52.716;6.696;2023-09-19T05:33:12;13.70;99.90
65692;DHT22;52411;52.716;6.696;2023-09-19T05:35:38;13.70;99.90
65692;DHT22;52411;52.716;6.696;2023-09-19T05:38:05;13.70;99.90
65692;DHT22;52411;52.716;6.696;2023-09-19T05:40:34;13.60;99.90
65692;DHT22;52411;52.716;6.696;2023-09-19T05:43:00;13.60;99.90
65692;DHT22;52411;52.716;6.696;2023-09-19T05:45:26;13.60;99.90
65692;DHT22;52411;52.716;6.696;2023-09-19T05:47:53;13.50;99.90
65692;DHT22;52411;52.716;6.696;2023-09-19T05:50:26;13.50;99.90
65692;DHT22;52411;52.716;6.696;2023-09-19T05:52:52;13.50;99.90
65692;DHT22;52411;52.716;6.696;2023-09-19T05:55:18;13.50;99.90
65692;DHT22;52411;52.716;6.696;2023-09-19T05:57:52;13.60;99.90
65692;DHT22;52411;52.716;6.696;2023-09-19T06:00:19;13.50;99.90
65692;DHT22;52411;52.716;6.696;2023-09-19T06:02:56;13.60;99.90
65692;DHT22;52411;52.716;6.696;2023-09-19T06:05:26;13.60;99.90
65692;DHT22;52411;52.716;6.696;2023-09-19T06:07:52;13.70;99.90
65692;DHT22;52411;52.716;6.696;2023-09-19T06:10:19;13.70;99.90
65692;DHT22;52411;52.716;6.696;2023-09-19T06:12:46;13.80;99.90
65692;DHT22;52411;52.716;6.696;2023-09-19T06:15:13;13.90;99.90
65692;DHT22;52411;52.716;6.696;2023-09-19T06:17:51;13.90;99.90
65692;DHT22;52411;52.716;6.696;2023-09-19T06:20:17;14.00;99.90
65692;DHT22;52411;52.716;6.696;2023-09-19T06:22:45;14.00;99.90
65692;DHT22;52411;52.716;6.696;2023-09-19T06:25:12;14.00;99.90
65692;DHT22;52411;52.716;6.696;2023-09-19T06:27:45;14.00;99.90
65692;DHT22;52411;52.716;6.696;2023-09-19T06:30:11;14.10;99.90
65692;DHT22;52411;52.716;6.696;2023-09-19T06:32:40;14.10;99.90
65692;DHT22;52411;52.716;6.696;2023-09-19T06:35:10;14.20;99.90
65692;DHT22;52411;52.716;6.696;2023-09-19T06:37:40;14.10;99.90
65692;DHT22;52411;52.716;6.696;2023-09-19T06:40:09;14.10;99.90
65692;DHT22;52411;52.716;6.696;2023-09-19T06:42:43;14.10;99.90
65692;DHT22;52411;52.716;6.696;2023-09-19T06:45:13;14.10;99.90
65692;DHT22;52411;52.716;6.696;2023-09-19T06:47:46;14.20;99.90
65692;DHT22;52411;52.716;6.696;2023-09-19T06:50:16;14.20;99.90
65692;DHT22;52411;52.716;6.696;2023-09-19T06:52:44;14.20;99.90
65692;DHT22;52411;52.716;6.696;2023-09-19T06:55:10;14.20;99.90
65692;DHT22;52411;52.716;6.696;2023-09-19T06:57:39;14.30;99.90
65692;DHT22;52411;52.716;6.696;2023-09-19T07:00:06;14.30;99.90
65692;DHT22;52411;52.716;6.696;2023-09-19T07:02:44;14.40;99.90
65692;DHT22;52411;52.716;6.696;2023-09-19T07:05:09;14.40;99.90
65692;DHT22;52411;52.716;6.696;2023-09-19T07:07:35;14.40;99.90
65692;DHT22;52411;52.716;6.696;2023-09-19T07:10:02;14.50;99.90
65692;DHT22;52411;52.716;6.696;2023-09-19T07:12:28;14.70;99.90
65692;DHT22;52411;52.716;6.696;2023-09-19T07:14:53;14.80;99.90
65692;DHT22;52411;52.716;6.696;2023-09-19T07:17:20;14.80;99.90
65692;DHT22;52411;52.716;6.696;2023-09-19T07:19:46;14.80;99.90
65692;DHT22;52411;52.716;6.696;2023-09-19T07:22:13;14.90;99.90
65692;DHT22;52411;52.716;6.696;2023-09-19T07:24:39;15.10;99.90
65692;DHT22;52411;52.716;6.696;2023-09-19T07:27:04;15.20;99.90
65692;DHT22;52411;52.716;6.696;2023-09-19T07:29:30;15.20;99.90
65692;DHT22;52411;52.716;6.696;2023-09-19T07:31:56;15.20;99.90
65692;DHT22;52411;52.716;6.696;2023-09-19T07:34:21;15.20;99.90
65692;DHT22;52411;52.716;6.696;2023-09-19T07:36:48;15.20;99.90
65692;DHT22;52411;52.716;6.696;2023-09-19T07:39:14;15.30;99.90
65692;DHT22;52411;52.716;6.696;2023-09-19T07:41:39;15.40;99.90
65692;DHT22;52411;52.716;6.696;2023-09-19T07:44:05;15.50;99.90
65692;DHT22;52411;52.716;6.696;2023-09-19T07:46:30;15.50;99.90
65692;DHT22;52411;52.716;6.696;2023-09-19T07:48:57;15.50;99.90
65692;DHT22;52411;52.716;6.696;2023-09-19T07:51:23;15.60;99.90
65692;DHT22;52411;52.716;6.696;2023-09-19T07:53:48;15.60;99.90
65692;DHT22;52411;52.716;6.696;2023-09-19T07:56:14;15.60;99.90
65692;DHT22;52411;52.716;6.696;2023-09-19T07:58:40;15.60;99.90
65692;DHT22;52411;52.716;6.696;2023-09-19T08:01:10;15.70;99.90
65692;DHT22;52411;52.716;6.696;2023-09-19T08:03:36;15.70;99.90
65692;DHT22;52411;52.716;6.696;2023-09-19T08:06:09;15.70;99.90
65692;DHT22;52411;52.716;6.696;2023-09-19T08:08:36;15.70;99.90
65692;DHT22;52411;52.716;6.696;2023-09-19T08:11:05;15.70;99.90
65692;DHT22;52411;52.716;6.696;2023-09-19T08:13:38;15.80;99.90
65692;DHT22;52411;52.716;6.696;2023-09-19T08:16:09;15.80;99.90
65692;DHT22;52411;52.716;6.696;2023-09-19T08:18:35;15.80;99.90
65692;DHT22;52411;52.716;6.696;2023-09-19T08:21:02;15.90;99.90
65692;DHT22;52411;52.716;6.696;2023-09-19T08:23:27;15.90;99.90
65692;DHT22;52411;52.716;6.696;2023-09-19T08:25:57;16.00;99.90
65692;DHT22;52411;52.716;6.696;2023-09-19T08:28:23;16.00;99.90
65692;DHT22;52411;52.716;6.696;2023-09-19T08:30:50;16.00;99.90
65692;DHT22;52411;52.716;6.696;2023-09-19T08:33:16;16.10;99.90
65692;DHT22;52411;52.716;6.696;2023-09-19T08:35:42;16.20;99.90
65692;DHT22;52411;52.716;6.696;2023-09-19T08:38:09;16.30;99.90
65692;DHT22;52411;52.716;6.696;2023-09-19T08:40:39;16.30;99.90
65692;DHT22;52411;52.716;6.696;2023-09-19T08:43:06;16.30;99.90
65692;DHT22;52411;52.716;6.696;2023-09-19T08:45:33;16.30;99.90
65692;DHT22;52411;52.716;6.696;2023-09-19T08:48:17;16.50;99.90
65692;DHT22;52411;52.716;6.696;2023-09-19T08:50:52;16.50;99.90
65692;DHT22;52411;52.716;6.696;2023-09-19T08:56:17;16.50;99.90
65692;DHT22;52411;52.716;6.696;2023-09-19T08:59:00;16.60;99.90
65692;DHT22;52411;52.716;6.696;2023-09-19T09:01:28;16.60;99.90
65692;DHT22;52411;52.716;6.696;2023-09-19T09:03:55;16.70;99.90
65692;DHT22;52411;52.716;6.696;2023-09-19T09:06:22;16.80;99.90
65692;DHT22;52411;52.716;6.696;2023-09-19T09:08:50;16.90;99.90
65692;DHT22;52411;52.716;6.696;2023-09-19T09:11:17;16.90;99.90
65692;DHT22;52411;52.716;6.696;2023-09-19T09:13:47;17.00;99.90
65692;DHT22;52411;52.716;6.696;2023-09-19T09:16:14;17.10;99.90
65692;DHT22;52411;52.716;6.696;2023-09-19T09:18:42;17.10;99.90
65692;DHT22;52411;52.716;6.696;2023-09-19T09:21:09;17.20;99.90
65692;DHT22;52411;52.716;6.696;2023-09-19T09:23:35;17.30;99.90
65692;DHT22;52411;52.716;6.696;2023-09-19T09:26:01;17.30;99.90
65692;DHT22;52411;52.716;6.696;2023-09-19T09:28:32;17.50;99.90
65692;DHT22;52411;52.716;6.696;2023-09-19T09:30:59;17.50;99.90
65692;DHT22;52411;52.716;6.696;2023-09-19T09:33:28;17.60;99.90
65692;DHT22;52411;52.716;6.696;2023-09-19T09:35:54;17.70;99.90
65692;DHT22;52411;52.716;6.696;2023-09-19T09:38:27;17.70;99.90
65692;DHT22;52411;52.716;6.696;2023-09-19T09:40:55;17.70;99.90
65692;DHT22;52411;52.716;6.696;2023-09-19T09:43:37;17.70;99.90
65692;DHT22;52411;52.716;6.696;2023-09-19T09:51:38;17.70;99.90
65692;DHT22;52411;52.716;6.696;2023-09-19T09:54:15;17.70;99.90
65692;DHT22;52411;52.716;6.696;2023-09-19T09:56:58;17.70;99.90
65692;DHT22;52411;52.716;6.696;2023-09-19T10:02:19;17.70;99.90
65692;DHT22;52411;52.716;6.696;2023-09-19T10:04:54;17.70;99.90
65692;DHT22;52411;52.716;6.696;2023-09-19T10:07:29;17.70;99.90
65692;DHT22;52411;52.716;6.696;2023-09-19T10:10:05;17.70;99.90
65692;DHT22;52411;52.716;6.696;2023-09-19T10:12:54;17.80;99.90
65692;DHT22;52411;52.716;6.696;2023-09-19T10:15:22;17.80;99.90
65692;DHT22;52411;52.716;6.696;2023-09-19T10:17:52;17.90;99.90
65692;DHT22;52411;52.716;6.696;2023-09-19T10:20:24;18.00;99.90
65692;DHT22;52411;52.716;6.696;2023-09-19T10:23:10;18.00;99.90
65692;DHT22;52411;52.716;6.696;2023-09-19T10:25:40;17.90;99.90
65692;DHT22;52411;52.716;6.696;2023-09-19T10:28:10;17.90;99.90
65692;DHT22;52411;52.716;6.696;2023-09-19T10:30:37;18.00;99.90
65692;DHT22;52411;52.716;6.696;2023-09-19T10:33:07;18.20;99.90
65692;DHT22;52411;52.716;6.696;2023-09-19T10:35:33;18.30;99.90
65692;DHT22;52411;52.716;6.696;2023-09-19T10:38:03;18.40;99.90
65692;DHT22;52411;52.716;6.696;2023-09-19T10:40:29;18.60;99.90
65692;DHT22;52411;52.716;6.696;2023-09-19T10:43:03;18.50;99.90
65692;DHT22;52411;52.716;6.696;2023-09-19T10:45:33;18.50;99.90
65692;DHT22;52411;52.716;6.696;2023-09-19T10:48:02;18.50;99.90
65692;DHT22;52411;52.716;6.696;2023-09-19T10:53:11;18.40;99.90
65692;DHT22;52411;52.716;6.696;2023-09-19T10:55:37;18.40;99.90
65692;DHT22;52411;52.716;6.696;2023-09-19T10:58:05;18.70;99.90
65692;DHT22;52411;52.716;6.696;2023-09-19T11:00:56;18.70;99.90
65692;DHT22;52411;52.716;6.696;2023-09-19T11:03:23;18.60;99.90
65692;DHT22;52411;52.716;6.696;2023-09-19T11:08:55;18.50;99.90
65692;DHT22;52411;52.716;6.696;2023-09-19T11:11:46;18.50;99.90
65692;DHT22;52411;52.716;6.696;2023-09-19T11:30:40;18.50;99.90
65692;DHT22;52411;52.716;6.696;2023-09-19T11:36:16;18.90;99.90
65692;DHT22;52411;52.716;6.696;2023-09-19T11:46:27;19.20;99.90
65692;DHT22;52411;52.716;6.696;2023-09-19T11:48:53;19.10;99.90
65692;DHT22;52411;52.716;6.696;2023-09-19T11:51:24;19.10;99.90
65692;DHT22;52411;52.716;6.696;2023-09-19T11:53:53;19.10;99.90
65692;DHT22;52411;52.716;6.696;2023-09-19T11:56:23;19.00;99.90
65692;DHT22;52411;52.716;6.696;2023-09-19T11:58:52;19.00;99.90
65692;DHT22;52411;52.716;6.696;2023-09-19T12:03:55;18.90;99.90
65692;DHT22;52411;52.716;6.696;2023-09-19T12:06:23;18.80;99.90
65692;DHT22;52411;52.716;6.696;2023-09-19T12:08:49;18.80;99.90
65692;DHT22;52411;52.716;6.696;2023-09-19T12:11:17;18.70;99.90
65692;DHT22;52411;52.716;6.696;2023-09-19T12:13:44;18.80;99.90
65692;DHT22;52411;52.716;6.696;2023-09-19T12:16:17;18.70;99.90
65692;DHT22;52411;52.716;6.696;2023-09-19T12:18:47;18.90;99.90
65692;DHT22;52411;52.716;6.696;2023-09-19T12:21:29;19.20;99.90
65692;DHT22;52411;52.716;6.696;2023-09-19T12:23:58;19.40;99.90
65692;DHT22;52411;52.716;6.696;2023-09-19T12:26:26;19.50;99.90
65692;DHT22;52411;52.716;6.696;2023-09-19T12:28:54;19.60;99.90
65692;DHT22;52411;52.716;6.696;2023-09-19T12:31:20;19.80;99.90
65692;DHT22;52411;52.716;6.696;2023-09-19T12:33:46;19.70;99.90
65692;DHT22;52411;52.716;6.696;2023-09-19T12:36:22;19.60;99.90
65692;DHT22;52411;52.716;6.696;2023-09-19T12:38:50;19.30;99.90
65692;DHT22;52411;52.716;6.696;2023-09-19T12:41:19;19.30;99.90
65692;DHT22;52411;52.716;6.696;2023-09-19T12:43:46;19.30;99.90
65692;DHT22;52411;52.716;6.696;2023-09-19T12:46:12;19.50;99.90
65692;DHT22;52411;52.716;6.696;2023-09-19T12:48:37;19.40;99.90
65692;DHT22;52411;52.716;6.696;2023-09-19T12:51:10;19.30;99.90
65692;DHT22;52411;52.716;6.696;2023-09-19T12:56:17;19.10;99.90
65692;DHT22;52411;52.716;6.696;2023-09-19T13:01:25;19.10;99.90
65692;DHT22;52411;52.716;6.696;2023-09-19T13:04:15;19.10;99.90
65692;DHT22;52411;52.716;6.696;2023-09-19T13:06:49;19.10;99.90
65692;DHT22;52411;52.716;6.696;2023-09-19T13:09:16;19.00;99.90
65692;DHT22;52411;52.716;6.696;2023-09-19T13:11:42;18.90;99.90
65692;DHT22;52411;52.716;6.696;2023-09-19T13:14:15;18.80;99.90
65692;DHT22;52411;52.716;6.696;2023-09-19T13:22:00;18.80;99.90
65692;DHT22;52411;52.716;6.696;2023-09-19T13:24:26;18.90;99.90
65692;DHT22;52411;52.716;6.696;2023-09-19T13:26:53;18.80;99.90
65692;DHT22;52411;52.716;6.696;2023-09-19T13:29:19;18.80;99.90
65692;DHT22;52411;52.716;6.696;2023-09-19T13:31:49;18.80;99.90
65692;DHT22;52411;52.716;6.696;2023-09-19T13:34:15;18.80;99.90
65692;DHT22;52411;52.716;6.696;2023-09-19T13:36:43;18.70;99.90
65692;DHT22;52411;52.716;6.696;2023-09-19T13:39:09;18.70;99.90
65692;DHT22;52411;52.716;6.696;2023-09-19T13:41:36;18.70;99.90
65692;DHT22;52411;52.716;6.696;2023-09-19T13:44:05;18.70;99.90
65692;DHT22;52411;52.716;6.696;2023-09-19T13:46:31;18.60;99.90
65692;DHT22;52411;52.716;6.696;2023-09-19T13:49:01;18.70;99.90
65692;DHT22;52411;52.716;6.696;2023-09-19T13:51:31;18.70;99.90
65692;DHT22;52411;52.716;6.696;2023-09-19T13:53:56;18.70;99.90
65692;DHT22;52411;52.716;6.696;2023-09-19T13:56:22;18.90;99.90
65692;DHT22;52411;52.716;6.696;2023-09-19T13:58:48;19.00;99.90
65692;DHT22;52411;52.716;6.696;2023-09-19T14:01:13;19.10;99.90
65692;DHT22;52411;52.716;6.696;2023-09-19T14:03:40;19.10;99.90
65692;DHT22;52411;52.716;6.696;2023-09-19T14:06:06;19.10;99.90
65692;DHT22;52411;52.716;6.696;2023-09-19T14:08:32;19.10;99.90
65692;DHT22;52411;52.716;6.696;2023-09-19T14:11:05;19.20;99.90
65692;DHT22;52411;52.716;6.696;2023-09-19T14:13:33;19.20;99.90
65692;DHT22;52411;52.716;6.696;2023-09-19T14:16:03;19.20;99.90
65692;DHT22;52411;52.716;6.696;2023-09-19T14:18:32;19.20;99.90
65692;DHT22;52411;52.716;6.696;2023-09-19T14:20:57;19.10;99.90
65692;DHT22;52411;52.716;6.696;2023-09-19T14:23:23;19.00;99.90
65692;DHT22;52411;52.716;6.696;2023-09-19T14:25:50;19.00;99.90
65692;DHT22;52411;52.716;6.696;2023-09-19T14:28:17;18.90;99.90
65692;DHT22;52411;52.716;6.696;2023-09-19T14:30:43;19.00;99.90
65692;DHT22;52411;52.716;6.696;2023-09-19T14:33:09;19.00;99.90
65692;DHT22;52411;52.716;6.696;2023-09-19T14:35:37;19.00;99.90
65692;DHT22;52411;52.716;6.696;2023-09-19T14:38:03;19.10;99.90
65692;DHT22;52411;52.716;6.696;2023-09-19T14:40:29;19.10;99.90
65692;DHT22;52411;52.716;6.696;2023-09-19T14:42:54;19.10;99.90
65692;DHT22;52411;52.716;6.696;2023-09-19T14:45:20;19.10;99.90
65692;DHT22;52411;52.716;6.696;2023-09-19T14:47:46;19.10;99.90
65692;DHT22;52411;52.716;6.696;2023-09-19T14:50:12;19.10;99.90
65692;DHT22;52411;52.716;6.696;2023-09-19T14:52:38;19.00;99.90
65692;DHT22;52411;52.716;6.696;2023-09-19T14:55:06;19.00;99.90
65692;DHT22;52411;52.716;6.696;2023-09-19T14:57:32;19.00;99.90
65692;DHT22;52411;52.716;6.696;2023-09-19T14:59:58;18.90;99.90
65692;DHT22;52411;52.716;6.696;2023-09-19T15:02:24;19.00;99.90
65692;DHT22;52411;52.716;6.696;2023-09-19T15:04:51;18.90;99.90
65692;DHT22;52411;52.716;6.696;2023-09-19T15:07:17;18.90;99.90
65692;DHT22;52411;52.716;6.696;2023-09-19T15:09:43;19.00;99.90
65692;DHT22;52411;52.716;6.696;2023-09-19T15:12:09;19.00;99.90
65692;DHT22;52411;52.716;6.696;2023-09-19T15:14:36;19.00;99.90
65692;DHT22;52411;52.716;6.696;2023-09-19T15:17:02;19.00;99.90
65692;DHT22;52411;52.716;6.696;2023-09-19T15:19:30;19.10;99.90
65692;DHT22;52411;52.716;6.696;2023-09-19T15:21:55;19.10;99.90
65692;DHT22;52411;52.716;6.696;2023-09-19T15:24:22;19.20;99.90
65692;DHT22;52411;52.716;6.696;2023-09-19T15:26:48;19.10;99.90
65692;DHT22;52411;52.716;6.696;2023-09-19T15:29:14;19.10;99.90
65692;DHT22;52411;52.716;6.696;2023-09-19T15:31:40;19.10;99.90
65692;DHT22;52411;52.716;6.696;2023-09-19T15:34:05;19.10;99.90
65692;DHT22;52411;52.716;6.696;2023-09-19T15:36:33;19.10;99.90
65692;DHT22;52411;52.716;6.696;2023-09-19T15:39:03;19.00;99.90
65692;DHT22;52411;52.716;6.696;2023-09-19T15:41:44;19.10;99.90
65692;DHT22;52411;52.716;6.696;2023-09-19T15:44:17;19.00;99.90
65692;DHT22;52411;52.716;6.696;2023-09-19T15:46:44;19.00;99.90
65692;DHT22;52411;52.716;6.696;2023-09-19T15:49:10;19.00;99.90
65692;DHT22;52411;52.716;6.696;2023-09-19T15:51:36;18.90;99.90
65692;DHT22;52411;52.716;6.696;2023-09-19T15:54:07;18.90;99.90
65692;DHT22;52411;52.716;6.696;2023-09-19T15:56:33;18.90;99.90
65692;DHT22;52411;52.716;6.696;2023-09-19T15:59:03;18.80;99.90
65692;DHT22;52411;52.716;6.696;2023-09-19T16:01:29;18.80;99.90
65692;DHT22;52411;52.716;6.696;2023-09-19T16:03:54;18.90;99.90
65692;DHT22;52411;52.716;6.696;2023-09-19T16:06:28;18.90;99.90
65692;DHT22;52411;52.716;6.696;2023-09-19T16:08:55;18.90;99.90
65692;DHT22;52411;52.716;6.696;2023-09-19T16:11:22;18.90;99.90
65692;DHT22;52411;52.716;6.696;2023-09-19T16:13:49;18.90;99.90
65692;DHT22;52411;52.716;6.696;2023-09-19T16:16:16;18.90;99.90
65692;DHT22;52411;52.716;6.696;2023-09-19T16:18:46;18.80;99.90
65692;DHT22;52411;52.716;6.696;2023-09-19T16:21:13;18.80;99.90
65692;DHT22;52411;52.716;6.696;2023-09-19T16:23:39;18.80;99.90
65692;DHT22;52411;52.716;6.696;2023-09-19T16:26:08;18.80;99.90
65692;DHT22;52411;52.716;6.696;2023-09-19T16:28:37;18.80;99.90
65692;DHT22;52411;52.716;6.696;2023-09-19T16:31:04;18.70;99.90
65692;DHT22;52411;52.716;6.696;2023-09-19T16:33:32;18.70;99.90
65692;DHT22;52411;52.716;6.696;2023-09-19T16:35:58;18.60;99.90
65692;DHT22;52411;52.716;6.696;2023-09-19T16:38:25;18.60;99.90
65692;DHT22;52411;52.716;6.696;2023-09-19T16:40:56;18.60;99.90
65692;DHT22;52411;52.716;6.696;2023-09-19T16:43:23;18.50;99.90